createdAt,value
2018-02-27T00:01:40.408Z,61.80
2018-02-27T00:04:08.647Z,60.70
2018-02-27T00:06:36.926Z,61.00
2018-02-27T00:09:05.212Z,60.50
2018-02-27T00:11:33.591Z,60.30
2018-02-27T00:14:01.840Z,60.00
2018-02-27T00:16:30.090Z,59.60
2018-02-27T00:18:58.444Z,59.20
2018-02-27T00:21:27.458Z,58.90
2018-02-27T00:23:55.718Z,58.80
2018-02-27T00:26:23.998Z,58.70
2018-02-27T00:28:52.291Z,58.70
2018-02-27T00:31:20.535Z,58.50
2018-02-27T00:33:49.571Z,58.20
2018-02-27T00:36:17.919Z,58.10
2018-02-27T00:38:46.183Z,58.30
2018-02-27T00:41:14.553Z,58.50
2018-02-27T00:43:43.588Z,58.30
2018-02-27T00:46:11.844Z,58.30
2018-02-27T00:48:40.173Z,58.00
2018-02-27T00:51:08.408Z,57.60
2018-02-27T00:53:36.663Z,57.70
2018-02-27T00:56:04.927Z,57.40
2018-02-27T00:58:33.187Z,57.20
2018-02-27T01:01:01.449Z,57.00
2018-02-27T01:03:29.697Z,56.70
2018-02-27T01:05:58.350Z,56.80
2018-02-27T01:08:27.803Z,57.00
2018-02-27T01:10:56.055Z,56.90
2018-02-27T01:13:24.331Z,57.00
2018-02-27T01:15:52.592Z,57.00
2018-02-27T01:18:20.856Z,57.00
2018-02-27T01:20:49.099Z,57.00
2018-02-27T01:23:17.452Z,57.10
2018-02-27T01:25:45.925Z,57.60
2018-02-27T01:28:14.358Z,57.10
2018-02-27T01:30:42.612Z,57.20
2018-02-27T01:33:10.859Z,57.10
2018-02-27T01:35:40.066Z,57.30
2018-02-27T01:38:08.342Z,57.20
2018-02-27T01:40:36.587Z,57.20
2018-02-27T01:43:04.839Z,57.20
2018-02-27T01:45:33.121Z,57.10
2018-02-27T01:48:01.377Z,57.30
2018-02-27T01:50:29.620Z,57.30
2018-02-27T01:52:58.738Z,57.50
2018-02-27T01:55:26.993Z,57.50
2018-02-27T01:57:56.044Z,57.70
2018-02-27T02:00:24.498Z,57.60
2018-02-27T02:02:52.952Z,57.70
2018-02-27T02:05:21.263Z,57.80
2018-02-27T02:07:49.535Z,58.00
2018-02-27T02:10:17.782Z,57.90
2018-02-27T02:12:49.776Z,58.00
2018-02-27T02:15:18.019Z,58.10
2018-02-27T02:17:46.299Z,58.20
2018-02-27T02:20:14.631Z,58.30
2018-02-27T02:22:42.883Z,58.90
2018-02-27T02:25:11.395Z,58.20
2018-02-27T02:27:39.639Z,58.20
2018-02-27T02:30:07.892Z,58.20
2018-02-27T02:32:36.146Z,58.20
2018-02-27T02:35:04.409Z,58.30
2018-02-27T02:37:33.516Z,58.20
2018-02-27T02:40:01.771Z,58.10
2018-02-27T02:42:30.780Z,58.10
2018-02-27T02:44:59.035Z,58.10
2018-02-27T02:47:28.048Z,58.00
2018-02-27T02:49:56.311Z,57.90
2018-02-27T02:52:25.326Z,58.00
2018-02-27T02:54:53.596Z,57.90
2018-02-27T02:57:21.854Z,58.10
2018-02-27T02:59:50.907Z,58.00
2018-02-27T03:02:19.172Z,57.90
2018-02-27T03:04:48.983Z,57.40
2018-02-27T03:07:17.270Z,57.40
2018-02-27T03:09:45.511Z,57.30
2018-02-27T03:12:13.771Z,57.40
2018-02-27T03:14:42.799Z,57.60
2018-02-27T03:17:11.067Z,57.50
2018-02-27T03:19:39.328Z,57.70
2018-02-27T03:22:07.598Z,57.80
2018-02-27T03:24:35.847Z,57.80
2018-02-27T03:27:04.847Z,57.90
2018-02-27T03:29:33.103Z,57.90
2018-02-27T03:32:02.122Z,58.00
2018-02-27T03:34:30.379Z,58.00
2018-02-27T03:36:59.503Z,58.10
2018-02-27T03:39:27.772Z,58.00
2018-02-27T03:41:56.144Z,58.20
2018-02-27T03:44:24.395Z,58.30
2018-02-27T03:46:52.633Z,58.30
2018-02-27T03:49:20.959Z,58.40
2018-02-27T03:51:49.999Z,58.60
2018-02-27T03:54:18.274Z,58.50
2018-02-27T03:56:46.515Z,58.70
2018-02-27T03:59:15.048Z,58.90
2018-02-27T04:01:43.307Z,59.00
2018-02-27T04:04:11.551Z,59.20
2018-02-27T04:06:39.795Z,59.30
2018-02-27T04:09:08.843Z,59.40
2018-02-27T04:11:37.086Z,59.20
2018-02-27T04:14:05.351Z,59.40
2018-02-27T04:16:33.606Z,59.50
2018-02-27T04:19:01.967Z,59.60
2018-02-27T04:21:30.194Z,59.60
2018-02-27T04:23:58.462Z,59.80
2018-02-27T04:26:26.743Z,59.90
2018-02-27T04:28:54.998Z,60.00
2018-02-27T04:31:23.307Z,60.20
2018-02-27T04:33:53.078Z,60.30
2018-02-27T04:36:21.538Z,60.30
2018-02-27T04:38:50.556Z,60.40
2018-02-27T04:41:18.828Z,60.30
2018-02-27T04:43:47.154Z,60.50
2018-02-27T04:46:15.428Z,60.50
2018-02-27T04:48:43.679Z,60.60
2018-02-27T04:51:11.955Z,60.70
2018-02-27T04:53:40.284Z,60.80
2018-02-27T04:56:09.316Z,61.80
2018-02-27T04:58:37.570Z,61.00
2018-02-27T05:01:05.838Z,61.30
2018-02-27T05:03:34.100Z,61.60
2018-02-27T05:06:02.371Z,61.90
2018-02-27T05:08:31.414Z,62.40
2018-02-27T05:10:59.813Z,62.20
2018-02-27T05:13:28.112Z,62.40
2018-02-27T05:15:57.132Z,62.20
2018-02-27T05:18:26.159Z,63.00
2018-02-27T05:20:54.574Z,62.90
2018-02-27T05:23:22.820Z,63.10
2018-02-27T05:25:51.077Z,63.30
2018-02-27T05:28:19.398Z,63.50
2018-02-27T05:30:47.892Z,63.60
2018-02-27T05:33:16.165Z,63.90
2018-02-27T05:35:45.207Z,64.20
2018-02-27T05:38:13.480Z,64.00
2018-02-27T05:40:42.083Z,64.20
2018-02-27T05:43:10.336Z,64.10
2018-02-27T05:45:38.600Z,63.90
2018-02-27T05:48:06.841Z,63.70
2018-02-27T05:50:35.909Z,63.30
2018-02-27T05:53:04.144Z,63.20
2018-02-27T05:55:32.409Z,63.30
2018-02-27T05:58:00.668Z,63.50
2018-02-27T06:00:29.736Z,63.70
2018-02-27T06:02:58.021Z,63.70
2018-02-27T06:05:27.062Z,63.90
2018-02-27T06:07:55.548Z,63.90
2018-02-27T06:10:23.815Z,64.00
2018-02-27T06:12:52.067Z,64.10
2018-02-27T06:15:20.341Z,64.20
2018-02-27T06:17:48.594Z,64.40
2018-02-27T06:20:17.731Z,64.70
2018-02-27T06:22:46.083Z,64.50
2018-02-27T06:25:14.279Z,64.90
2018-02-27T06:27:42.543Z,65.10
2018-02-27T06:30:10.803Z,65.20
2018-02-27T06:32:39.916Z,65.40
2018-02-27T06:35:08.417Z,65.30
2018-02-27T06:37:36.659Z,65.40
2018-02-27T06:40:05.763Z,65.40
2018-02-27T06:42:34.144Z,65.30
2018-02-27T06:45:02.412Z,65.20
2018-02-27T06:47:30.708Z,65.10
2018-02-27T06:49:58.967Z,65.00
2018-02-27T06:52:27.227Z,65.10
2018-02-27T06:54:55.506Z,65.20
2018-02-27T06:57:24.000Z,65.20
2018-02-27T06:59:52.249Z,65.30
2018-02-27T07:02:21.283Z,65.60
2018-02-27T07:04:49.688Z,65.60
2018-02-27T07:07:17.971Z,65.60
2018-02-27T07:09:47.086Z,65.70
2018-02-27T07:12:15.478Z,65.60
2018-02-27T07:14:43.741Z,65.80
2018-02-27T07:17:13.011Z,65.80
2018-02-27T07:19:41.400Z,66.10
2018-02-27T07:22:10.446Z,65.70
2018-02-27T07:24:38.742Z,65.60
2018-02-27T07:27:07.019Z,65.70
2018-02-27T07:29:35.305Z,65.70
2018-02-27T07:32:03.745Z,65.30
2018-02-27T07:34:32.010Z,65.10
2018-02-27T07:37:00.339Z,64.50
2018-02-27T07:39:29.402Z,64.00
2018-02-27T07:41:57.659Z,63.90
2018-02-27T07:44:25.958Z,63.10
2018-02-27T07:46:54.234Z,62.90
2018-02-27T07:49:22.637Z,62.70
2018-02-27T07:51:50.898Z,62.60
2018-02-27T07:54:19.168Z,62.70
2018-02-27T07:56:47.472Z,62.40
2018-02-27T07:59:15.877Z,62.20
2018-02-27T08:01:44.899Z,61.80
2018-02-27T08:04:13.201Z,61.70
2018-02-27T08:06:41.420Z,61.50
2018-02-27T08:09:09.666Z,61.50
2018-02-27T08:11:38.011Z,61.30
2018-02-27T08:14:06.258Z,61.20
2018-02-27T08:16:34.532Z,60.60
2018-02-27T08:19:02.815Z,60.10
2018-02-27T08:21:31.068Z,59.60
2018-02-27T08:23:59.315Z,59.50
2018-02-27T08:26:28.343Z,58.50
2018-02-27T08:28:56.649Z,58.40
2018-02-27T08:31:24.900Z,58.10
2018-02-27T08:33:53.183Z,57.00
2018-02-27T08:36:21.426Z,57.10
2018-02-27T08:38:49.779Z,56.70
2018-02-27T08:41:18.907Z,56.70
2018-02-27T08:43:47.173Z,56.30
2018-02-27T08:46:15.423Z,55.50
2018-02-27T08:48:44.500Z,53.60
2018-02-27T08:51:12.728Z,53.50
2018-02-27T08:53:41.883Z,53.60
2018-02-27T08:56:10.150Z,53.40
2018-02-27T08:58:38.411Z,53.50
2018-02-27T09:01:06.663Z,53.20
2018-02-27T09:03:34.936Z,52.70
2018-02-27T09:06:03.199Z,52.70
2018-02-27T09:08:31.471Z,52.50
2018-02-27T09:10:59.932Z,51.90
2018-02-27T09:13:28.212Z,51.90
2018-02-27T09:15:56.502Z,51.40
2018-02-27T09:18:25.498Z,51.50
2018-02-27T09:20:53.751Z,51.40
2018-02-27T09:23:22.022Z,50.70
2018-02-27T09:25:50.251Z,50.60
2018-02-27T09:28:18.514Z,49.50
2018-02-27T09:30:46.814Z,49.40
2018-02-27T09:33:15.346Z,47.90
2018-02-27T09:35:43.627Z,47.10
2018-02-27T09:38:11.990Z,47.50
2018-02-27T09:40:40.254Z,46.30
2018-02-27T09:43:09.280Z,45.90
2018-02-27T09:45:37.550Z,45.80
2018-02-27T09:48:05.797Z,45.50
2018-02-27T09:50:34.064Z,44.90
2018-02-27T09:53:03.183Z,43.60
2018-02-27T09:55:31.459Z,43.60
2018-02-27T09:57:59.703Z,44.20
2018-02-27T10:00:28.711Z,43.80
2018-02-27T10:02:57.012Z,43.60
2018-02-27T10:05:25.266Z,43.20
2018-02-27T10:07:53.522Z,43.40
2018-02-27T10:10:22.585Z,43.70
2018-02-27T10:12:50.877Z,43.70
2018-02-27T10:15:19.135Z,43.00
2018-02-27T10:17:47.408Z,42.60
2018-02-27T10:20:15.716Z,41.60
2018-02-27T10:22:44.782Z,41.40
2018-02-27T10:25:13.012Z,41.30
2018-02-27T10:27:41.384Z,41.50
2018-02-27T10:30:09.718Z,41.70
2018-02-27T10:32:37.948Z,42.30
2018-02-27T10:35:06.408Z,42.20
2018-02-27T10:37:35.415Z,42.10
2018-02-27T10:40:03.731Z,42.10
2018-02-27T10:42:32.007Z,41.30
2018-02-27T10:45:00.270Z,40.90
2018-02-27T10:47:28.543Z,40.50
2018-02-27T10:49:56.795Z,40.50
2018-02-27T10:52:25.072Z,40.30
2018-02-27T10:54:53.352Z,40.30
2018-02-27T10:57:21.643Z,40.20
2018-02-27T10:59:49.927Z,40.50
2018-02-27T11:02:18.147Z,40.10
2018-02-27T11:04:46.418Z,40.00
2018-02-27T11:07:14.670Z,39.70
2018-02-27T11:09:43.756Z,40.00
2018-02-27T11:12:11.999Z,40.00
2018-02-27T11:14:40.266Z,40.70
2018-02-27T11:17:08.506Z,40.80
2018-02-27T11:19:36.792Z,40.50
2018-02-27T11:22:05.047Z,41.10
2018-02-27T11:24:33.381Z,40.60
2018-02-27T11:27:01.647Z,40.60
2018-02-27T11:29:30.032Z,40.80
2018-02-27T11:31:58.367Z,41.10
2018-02-27T11:34:26.635Z,40.80
2018-02-27T11:36:55.743Z,41.40
2018-02-27T11:39:24.005Z,42.00
2018-02-27T11:41:53.018Z,41.10
2018-02-27T11:44:21.288Z,41.10
2018-02-27T11:52:32.955Z,40.90
2018-02-27T11:55:01.253Z,41.10
2018-02-27T11:57:30.324Z,41.10
2018-02-27T11:59:58.701Z,41.10
2018-02-27T12:02:27.075Z,40.80
2018-02-27T12:04:56.230Z,40.30
2018-02-27T12:07:24.518Z,40.20
2018-02-27T12:09:52.946Z,40.10
2018-02-27T12:12:22.054Z,41.10
2018-02-27T12:14:50.407Z,41.00
2018-02-27T12:17:18.644Z,40.90
2018-02-27T12:19:46.995Z,41.00
2018-02-27T12:22:16.168Z,41.10
2018-02-27T12:24:44.459Z,41.10
2018-02-27T12:27:13.448Z,40.90
2018-02-27T12:29:42.484Z,40.80
2018-02-27T12:32:10.726Z,40.70
2018-02-27T12:34:38.988Z,40.60
2018-02-27T12:37:08.009Z,40.80
2018-02-27T12:39:36.271Z,40.70
2018-02-27T12:42:04.543Z,40.60
2018-02-27T12:44:32.809Z,40.60
2018-02-27T12:47:01.079Z,40.70
2018-02-27T12:49:30.113Z,40.40
2018-02-27T12:51:58.423Z,40.30
2018-02-27T12:54:26.672Z,40.40
2018-02-27T12:56:54.994Z,40.00
2018-02-27T12:59:24.043Z,40.10
2018-02-27T13:01:52.322Z,40.00
2018-02-27T13:04:21.379Z,40.60
2018-02-27T13:06:49.645Z,40.20
2018-02-27T13:09:17.909Z,40.20
2018-02-27T13:11:46.214Z,39.90
2018-02-27T13:14:14.492Z,39.50
2018-02-27T13:16:42.760Z,39.10
2018-02-27T13:19:11.024Z,39.40
2018-02-27T13:21:40.067Z,40.80
2018-02-27T13:24:08.415Z,40.80
2018-02-27T13:26:36.663Z,41.30
2018-02-27T13:29:05.843Z,41.40
2018-02-27T13:31:34.112Z,41.30
2018-02-27T13:34:03.140Z,41.10
2018-02-27T13:36:31.395Z,41.00
2018-02-27T13:38:59.860Z,41.30
2018-02-27T13:41:28.128Z,41.10
2018-02-27T13:43:56.396Z,41.40
2018-02-27T13:46:24.657Z,40.90
2018-02-27T13:48:53.076Z,41.00
2018-02-27T13:51:21.339Z,41.40
2018-02-27T13:53:50.392Z,42.60
2018-02-27T13:56:18.725Z,42.50
2018-02-27T13:58:47.049Z,42.80
2018-02-27T14:01:15.322Z,42.80
2018-02-27T14:03:43.623Z,42.30
2018-02-27T14:06:12.672Z,42.10
2018-02-27T14:08:40.951Z,42.00
2018-02-27T14:11:09.240Z,42.10
2018-02-27T14:13:37.475Z,41.80
2018-02-27T14:16:05.739Z,41.10
2018-02-27T14:18:34.020Z,40.90
2018-02-27T14:21:02.388Z,40.90
2018-02-27T14:23:31.390Z,41.70
2018-02-27T14:25:59.661Z,41.60
2018-02-27T14:28:27.915Z,41.10
2018-02-27T14:30:57.101Z,42.00
2018-02-27T14:33:25.323Z,42.00
2018-02-27T14:35:53.873Z,41.50
2018-02-27T14:38:22.109Z,41.50
2018-02-27T14:40:50.413Z,41.40
2018-02-27T14:43:18.752Z,40.90
2018-02-27T14:45:47.164Z,40.90
2018-02-27T14:48:16.303Z,41.30
2018-02-27T14:50:44.662Z,41.20
2018-02-27T14:53:12.928Z,41.60
2018-02-27T14:55:41.921Z,42.40
2018-02-27T14:58:10.192Z,42.40
2018-02-27T15:00:39.261Z,42.20
2018-02-27T15:03:07.542Z,42.10
2018-02-27T15:05:36.575Z,42.90
2018-02-27T15:08:04.840Z,42.20
2018-02-27T15:10:33.099Z,41.50
2018-02-27T15:13:02.129Z,42.10
2018-02-27T15:15:30.510Z,42.10
2018-02-27T15:17:59.533Z,42.00
2018-02-27T15:20:27.788Z,41.90
2018-02-27T15:22:56.062Z,42.00
2018-02-27T15:25:24.351Z,41.50
2018-02-27T15:27:52.648Z,41.00
2018-02-27T15:30:20.964Z,40.80
2018-02-27T15:32:49.250Z,41.30
2018-02-27T15:35:17.546Z,41.70
2018-02-27T15:37:45.826Z,41.80
2018-02-27T15:40:14.235Z,41.50
2018-02-27T15:42:43.392Z,40.10
2018-02-27T15:45:11.746Z,40.10
2018-02-27T15:47:39.988Z,39.60
2018-02-27T15:50:09.020Z,40.10
2018-02-27T15:52:37.286Z,40.10
2018-02-27T15:55:05.557Z,40.10
2018-02-27T15:57:33.849Z,40.10
2018-02-27T16:00:02.218Z,40.20
2018-02-27T16:02:31.212Z,40.80
2018-02-27T16:04:59.455Z,40.80
2018-02-27T16:07:28.535Z,41.20
2018-02-27T16:09:56.791Z,41.20
2018-02-27T16:12:26.553Z,41.50
2018-02-27T16:14:54.823Z,41.50
2018-02-27T16:17:23.096Z,41.30
2018-02-27T16:19:51.367Z,41.10
2018-02-27T16:22:19.655Z,41.00
2018-02-27T16:24:47.918Z,41.00
2018-02-27T16:27:16.180Z,41.50
2018-02-27T16:29:45.205Z,41.90
2018-02-27T16:32:13.485Z,41.90
2018-02-27T16:34:41.850Z,42.30
2018-02-27T16:37:10.219Z,42.60
2018-02-27T16:39:38.564Z,42.90
2018-02-27T16:42:07.581Z,43.20
2018-02-27T16:44:35.847Z,43.20
2018-02-27T16:47:04.100Z,43.40
2018-02-27T16:49:33.212Z,43.20
2018-02-27T16:52:02.243Z,42.30
2018-02-27T16:54:31.292Z,42.30
2018-02-27T16:56:59.544Z,42.10
2018-02-27T16:59:28.955Z,42.70
2018-02-27T17:01:58.095Z,42.70
2018-02-27T17:04:26.435Z,42.60
2018-02-27T17:06:54.823Z,42.90
2018-02-27T17:09:23.858Z,43.10
2018-02-27T17:11:52.127Z,43.00
2018-02-27T17:14:20.386Z,43.40
2018-02-27T17:16:48.831Z,43.40
2018-02-27T17:19:17.895Z,43.60
2018-02-27T17:21:46.158Z,43.50
2018-02-27T17:24:14.470Z,43.70
2018-02-27T17:26:43.597Z,44.00
2018-02-27T17:29:11.846Z,44.00
2018-02-27T17:31:40.213Z,44.20
2018-02-27T17:34:09.131Z,44.10
2018-02-27T17:36:39.125Z,45.10
2018-02-27T17:39:08.175Z,44.50
2018-02-27T17:41:36.451Z,44.40
2018-02-27T17:44:04.838Z,44.40
2018-02-27T17:46:33.135Z,44.70
2018-02-27T17:49:02.201Z,45.20
2018-02-27T17:51:30.467Z,44.50
2018-02-27T17:53:58.711Z,44.10
2018-02-27T17:56:26.965Z,44.00
2018-02-27T17:58:56.002Z,44.30
2018-02-27T18:01:24.251Z,44.20
2018-02-27T18:03:52.524Z,44.30
2018-02-27T18:06:21.539Z,44.80
2018-02-27T18:08:49.838Z,44.70
2018-02-27T18:11:18.276Z,45.00
2018-02-27T18:13:47.332Z,45.20
2018-02-27T18:16:15.593Z,45.10
2018-02-27T18:18:43.861Z,45.50
2018-02-27T18:21:12.261Z,45.70
2018-02-27T18:23:40.635Z,45.70
2018-02-27T18:26:08.883Z,45.90
2018-02-27T18:28:37.258Z,46.10
2018-02-27T18:31:05.553Z,46.30
2018-02-27T18:33:33.811Z,46.50
2018-02-27T18:36:02.088Z,46.80
2018-02-27T18:38:30.381Z,46.90
2018-02-27T18:40:58.695Z,47.00
2018-02-27T18:43:27.724Z,47.40
2018-02-27T18:45:56.140Z,47.30
2018-02-27T18:48:24.419Z,47.50
2018-02-27T18:50:53.484Z,48.30
2018-02-27T18:53:21.779Z,47.70
2018-02-27T18:55:50.074Z,47.80
2018-02-27T18:58:19.097Z,48.10
2018-02-27T19:00:47.421Z,48.00
2018-02-27T19:03:16.019Z,48.00
2018-02-27T19:05:45.052Z,48.10
2018-02-27T19:08:13.356Z,48.00
2018-02-27T19:10:41.648Z,48.10
2018-02-27T19:13:10.019Z,48.20
2018-02-27T19:15:38.280Z,48.30
2018-02-27T19:18:06.590Z,48.40
2018-02-27T19:20:34.916Z,48.30
2018-02-27T19:23:03.305Z,48.40
2018-02-27T19:25:31.552Z,48.40
2018-02-27T19:27:59.871Z,48.50
2018-02-27T19:30:28.345Z,48.70
2018-02-27T19:32:56.620Z,48.80
2018-02-27T19:35:24.861Z,48.80
2018-02-27T19:37:53.267Z,49.00
2018-02-27T19:40:21.590Z,49.20
2018-02-27T19:42:50.772Z,49.40
2018-02-27T19:45:19.824Z,49.50
2018-02-27T19:47:48.165Z,49.50
2018-02-27T19:50:16.451Z,49.60
2018-02-27T19:52:44.764Z,49.70
2018-02-27T19:55:13.226Z,49.70
2018-02-27T19:57:41.513Z,49.80
2018-02-27T20:00:09.871Z,49.80
2018-02-27T20:02:38.286Z,49.90
2018-02-27T20:05:08.077Z,50.00
2018-02-27T20:07:36.327Z,50.00
2018-02-27T20:10:04.714Z,50.10
2018-02-27T20:12:32.947Z,50.30
2018-02-27T20:15:03.597Z,50.40
2018-02-27T20:17:32.102Z,50.40
2018-02-27T20:20:00.392Z,50.60
2018-02-27T20:22:28.728Z,50.70
2018-02-27T20:24:57.065Z,50.80
2018-02-27T20:27:25.369Z,50.90
2018-02-27T20:29:54.395Z,50.90
2018-02-27T20:32:22.651Z,50.90
2018-02-27T20:34:50.931Z,50.90
2018-02-27T20:37:19.331Z,50.90
2018-02-27T20:39:47.600Z,50.90
2018-02-27T20:42:15.897Z,51.00
2018-02-27T20:44:44.184Z,51.70
2018-02-27T20:47:13.265Z,51.90
2018-02-27T20:49:41.701Z,51.20
2018-02-27T20:52:10.548Z,51.40
2018-02-27T20:54:38.826Z,51.70
2018-02-27T20:57:07.156Z,52.00
2018-02-27T20:59:35.437Z,52.50
2018-02-27T21:02:03.752Z,52.70
2018-02-27T21:04:32.005Z,53.00
2018-02-27T21:07:01.113Z,54.70
2018-02-27T21:09:29.495Z,54.00
2018-02-27T21:11:58.609Z,55.50
2018-02-27T21:14:27.659Z,56.00
2018-02-27T21:16:55.939Z,55.90
2018-02-27T21:19:24.228Z,56.30
2018-02-27T21:21:52.520Z,56.50
2018-02-27T21:24:21.514Z,56.70
2018-02-27T21:26:49.741Z,56.80
2018-02-27T21:29:18.859Z,57.10
2018-02-27T21:31:47.136Z,57.00
2018-02-27T21:34:16.927Z,57.30
2018-02-27T21:36:45.433Z,57.30
2018-02-27T21:39:13.708Z,57.40
2018-02-27T21:41:42.769Z,57.70
2018-02-27T21:44:11.040Z,57.60
2018-02-27T21:46:39.278Z,57.90
2018-02-27T21:49:07.640Z,58.10
2018-02-27T21:51:36.076Z,58.20
2018-02-27T21:54:04.448Z,58.40
2018-02-27T21:56:32.876Z,58.60
2018-02-27T21:59:01.956Z,59.10
2018-02-27T22:01:31.034Z,59.80
2018-02-27T22:03:59.297Z,59.20
2018-02-27T22:06:33.274Z,59.60
2018-02-27T22:09:01.520Z,59.60
2018-02-27T22:11:30.704Z,60.10
2018-02-27T22:13:59.167Z,60.00
2018-02-27T22:16:27.560Z,60.40
2018-02-27T22:18:55.871Z,60.50
2018-02-27T22:21:24.905Z,61.20
2018-02-27T22:23:53.176Z,61.20
2018-02-27T22:26:21.510Z,61.60
2018-02-27T22:28:49.776Z,62.00
2018-02-27T22:31:18.044Z,62.20
2018-02-27T22:33:47.216Z,63.20
2018-02-27T22:36:15.480Z,63.00
2018-02-27T22:38:43.744Z,63.90
2018-02-27T22:41:12.182Z,64.50
2018-02-27T22:43:40.483Z,65.00
2018-02-27T22:46:08.738Z,65.40
2018-02-27T22:48:37.029Z,65.80
2018-02-27T22:51:05.382Z,65.90
2018-02-27T22:53:33.663Z,66.20
2018-02-27T22:56:01.941Z,66.50
2018-02-27T22:58:30.268Z,66.80
2018-02-27T23:00:58.914Z,67.30
2018-02-27T23:03:27.236Z,67.50
2018-02-27T23:05:55.475Z,68.00
2018-02-27T23:08:23.884Z,68.20
2018-02-27T23:10:52.115Z,68.40
2018-02-27T23:13:20.601Z,68.70
2018-02-27T23:15:48.855Z,68.90
2018-02-27T23:18:17.150Z,69.00
2018-02-27T23:20:45.456Z,69.30
2018-02-27T23:23:13.711Z,69.50
2018-02-27T23:25:46.226Z,69.70
2018-02-27T23:28:16.152Z,69.90
2018-02-27T23:30:45.341Z,70.10
2018-02-27T23:33:14.354Z,70.00
2018-02-27T23:35:42.861Z,69.80
2018-02-27T23:38:11.132Z,70.00
2018-02-27T23:40:39.404Z,70.00
2018-02-27T23:43:07.672Z,70.30
2018-02-27T23:45:36.034Z,70.60
2018-02-27T23:48:04.408Z,70.50
2018-02-27T23:50:32.818Z,70.70
2018-02-27T23:53:01.209Z,70.80
2018-02-27T23:55:29.557Z,70.80
2018-02-27T23:57:57.922Z,70.80
